createdAt,value
2023-02-14T00:00:50.742Z,9.26
2023-02-14T00:03:17.725Z,8.55
2023-02-14T00:05:44.675Z,8.04
2023-02-14T00:08:11.732Z,8.31
2023-02-14T00:10:38.681Z,8.86
2023-02-14T00:13:05.525Z,9.30
2023-02-14T00:15:32.485Z,9.45
2023-02-14T00:18:00.141Z,8.75
2023-02-14T00:20:28.426Z,8.02
2023-02-14T00:22:55.784Z,8.11
2023-02-14T00:25:23.257Z,8.62
2023-02-14T00:27:50.815Z,8.97
2023-02-14T00:30:17.842Z,9.20
2023-02-14T00:32:44.819Z,9.39
2023-02-14T00:35:12.482Z,9.35
2023-02-14T00:37:41.384Z,8.61
2023-02-14T00:40:09.561Z,7.87
2023-02-14T00:42:36.527Z,7.94
2023-02-14T00:45:03.978Z,8.50
2023-02-14T00:47:30.927Z,8.87
2023-02-14T00:50:02.999Z,9.19
2023-02-14T00:52:31.506Z,9.47
2023-02-14T00:54:58.901Z,9.55
2023-02-14T00:57:25.898Z,8.79
2023-02-14T00:59:52.839Z,8.00
2023-02-14T01:02:20.967Z,8.14
2023-02-14T01:04:47.990Z,8.81
2023-02-14T01:07:15.031Z,9.40
2023-02-14T01:09:42.398Z,9.35
2023-02-14T01:12:09.362Z,8.47
2023-02-14T01:14:36.288Z,7.95
2023-02-14T01:17:03.225Z,8.42
2023-02-14T01:19:30.186Z,9.05
2023-02-14T01:21:57.133Z,9.47
2023-02-14T01:24:25.312Z,9.16
2023-02-14T01:26:52.261Z,8.32
2023-02-14T01:29:19.208Z,7.90
2023-02-14T01:31:48.655Z,8.42
2023-02-14T01:34:15.577Z,9.00
2023-02-14T01:36:42.634Z,9.34
2023-02-14T01:39:15.404Z,9.58
2023-02-14T01:41:50.273Z,9.59
2023-02-14T01:44:17.083Z,8.78
2023-02-14T01:46:46.184Z,7.95
2023-02-14T01:49:20.912Z,7.76
2023-02-14T01:51:56.984Z,8.49
2023-02-14T01:54:27.546Z,9.11
2023-02-14T01:56:58.868Z,9.43
2023-02-14T01:59:32.663Z,9.66
2023-02-14T02:01:59.924Z,9.38
2023-02-14T02:04:32.807Z,8.37
2023-02-14T02:07:03.446Z,7.86
2023-02-14T02:09:34.797Z,8.35
2023-02-14T02:12:03.172Z,8.90
2023-02-14T02:14:31.165Z,9.31
2023-02-14T02:17:13.482Z,9.61
2023-02-14T02:20:18.573Z,9.59
2023-02-14T02:23:23.491Z,8.43
2023-02-14T02:26:02.540Z,7.93
2023-02-14T02:28:49.686Z,8.52
2023-02-14T02:31:38.128Z,9.10
2023-02-14T02:34:43.389Z,9.36
2023-02-14T02:37:19.263Z,9.55
2023-02-14T02:40:08.383Z,9.70
2023-02-14T02:42:55.355Z,8.93
2023-02-14T02:46:03.231Z,8.13
2023-02-14T02:48:43.335Z,8.50
2023-02-14T02:51:37.851Z,8.97
2023-02-14T02:54:14.286Z,9.26
2023-02-14T02:56:56.191Z,9.53
2023-02-14T02:59:31.377Z,9.64
2023-02-14T03:02:19.559Z,9.64
2023-02-14T03:04:54.992Z,8.58
2023-02-14T03:07:39.897Z,7.91
2023-02-14T03:10:15.720Z,8.30
2023-02-14T03:13:05.654Z,8.77
2023-02-14T03:19:10.690Z,9.32
2023-02-14T03:21:49.161Z,9.57
2023-02-14T03:24:34.694Z,9.43
2023-02-14T03:27:21.376Z,8.40
2023-02-14T03:29:48.389Z,7.77
2023-02-14T03:32:42.169Z,8.17
2023-02-14T03:35:26.929Z,8.76
2023-02-14T03:38:14.306Z,9.02
2023-02-14T03:41:04.394Z,9.39
2023-02-14T03:43:37.140Z,9.44
2023-02-14T03:46:11.952Z,9.53
2023-02-14T03:48:40.818Z,9.55
2023-02-14T03:51:11.054Z,8.78
2023-02-14T03:53:43.927Z,8.02
2023-02-14T03:56:17.644Z,8.24
2023-02-14T03:58:49.863Z,8.72
2023-02-14T04:01:32.541Z,9.07
2023-02-14T04:04:00.796Z,9.30
2023-02-14T04:06:27.745Z,9.43
2023-02-14T04:08:55.021Z,9.42
2023-02-14T04:11:24.307Z,8.71
2023-02-14T04:13:51.694Z,7.74
2023-02-14T04:16:18.604Z,7.30
2023-02-14T04:19:04.096Z,7.84
2023-02-14T04:21:30.916Z,8.43
2023-02-14T04:23:57.695Z,8.76
2023-02-14T04:26:24.574Z,8.99
2023-02-14T04:28:51.415Z,9.24
2023-02-14T04:31:18.365Z,9.35
2023-02-14T04:33:46.185Z,9.45
2023-02-14T04:36:13.036Z,9.32
2023-02-14T04:38:39.963Z,8.42
2023-02-14T04:41:06.860Z,7.73
2023-02-14T04:43:33.642Z,8.04
2023-02-14T04:46:00.421Z,8.47
2023-02-14T04:48:27.348Z,8.79
2023-02-14T04:50:55.314Z,9.11
2023-02-14T04:53:22.477Z,9.25
2023-02-14T04:55:50.512Z,9.36
2023-02-14T04:58:17.915Z,9.21
2023-02-14T05:00:45.072Z,8.41
2023-02-14T05:03:12.033Z,7.75
2023-02-14T05:05:38.889Z,8.02
2023-02-14T05:08:05.857Z,8.46
2023-02-14T05:10:32.669Z,8.82
2023-02-14T05:13:01.271Z,9.00
2023-02-14T05:15:28.088Z,9.15
2023-02-14T05:17:54.964Z,9.23
2023-02-14T05:20:21.770Z,9.29
2023-02-14T05:22:48.597Z,9.36
2023-02-14T05:25:15.434Z,9.21
2023-02-14T05:27:42.275Z,8.35
2023-02-14T05:30:10.102Z,7.69
2023-02-14T05:32:37.074Z,7.99
2023-02-14T05:35:04.536Z,8.42
2023-02-14T05:37:31.891Z,8.69
2023-02-14T05:39:58.724Z,8.99
2023-02-14T05:42:25.595Z,9.04
2023-02-14T05:44:52.417Z,9.12
2023-02-14T05:47:19.266Z,9.19
2023-02-14T05:49:46.099Z,9.18
2023-02-14T05:52:12.983Z,9.30
2023-02-14T05:54:39.982Z,9.35
2023-02-14T05:57:06.938Z,9.40
2023-02-14T05:59:33.768Z,9.47
2023-02-14T06:02:00.639Z,8.77
2023-02-14T06:04:27.458Z,7.94
2023-02-14T06:06:54.434Z,8.07
2023-02-14T06:09:21.298Z,8.50
2023-02-14T06:11:48.136Z,8.77
2023-02-14T06:14:14.940Z,8.97
2023-02-14T06:16:41.909Z,9.04
2023-02-14T06:19:08.820Z,9.14
2023-02-14T06:21:36.041Z,9.17
2023-02-14T06:24:03.121Z,9.34
2023-02-14T06:26:29.967Z,9.42
2023-02-14T06:28:58.684Z,9.37
2023-02-14T06:31:26.144Z,8.55
2023-02-14T06:33:54.003Z,7.81
2023-02-14T06:36:21.899Z,8.06
2023-02-14T06:38:49.178Z,8.44
2023-02-14T06:41:19.914Z,8.73
2023-02-14T06:43:50.770Z,8.96
2023-02-14T06:46:18.886Z,9.06
2023-02-14T06:48:45.947Z,9.25
2023-02-14T06:51:13.081Z,9.25
2023-02-14T06:53:40.404Z,9.25
2023-02-14T06:56:07.632Z,9.32
2023-02-14T06:58:34.727Z,9.30
2023-02-14T07:01:02.081Z,9.37
2023-02-14T07:03:29.315Z,9.25
2023-02-14T07:05:58.145Z,8.47
2023-02-14T07:08:26.307Z,7.74
2023-02-14T07:10:59.479Z,8.00
2023-02-14T07:13:26.681Z,8.40
2023-02-14T07:15:54.212Z,8.81
2023-02-14T07:18:22.621Z,8.99
2023-02-14T07:20:50.499Z,9.21
2023-02-14T07:23:17.515Z,9.34
2023-02-14T07:25:44.383Z,9.45
2023-02-14T07:28:11.361Z,9.47
2023-02-14T07:30:38.292Z,8.75
2023-02-14T07:33:05.468Z,7.94
2023-02-14T07:35:35.281Z,8.02
2023-02-14T07:38:02.223Z,8.58
2023-02-14T07:40:30.096Z,9.06
2023-02-14T07:42:58.564Z,9.35
2023-02-14T07:45:25.931Z,9.58
2023-02-14T07:47:55.280Z,9.37
2023-02-14T07:50:23.429Z,8.42
2023-02-14T07:52:50.674Z,7.86
2023-02-14T07:55:19.608Z,8.26
2023-02-14T07:57:49.783Z,8.75
2023-02-14T08:00:17.325Z,9.17
2023-02-14T08:02:44.585Z,9.36
2023-02-14T08:05:11.694Z,9.49
2023-02-14T08:07:38.804Z,9.65
2023-02-14T08:10:06.461Z,8.96
2023-02-14T08:12:52.055Z,8.12
2023-02-14T08:15:37.747Z,8.11
2023-02-14T08:18:04.699Z,8.74
2023-02-14T08:20:31.793Z,9.23
2023-02-14T08:22:58.772Z,9.55
2023-02-14T08:25:25.663Z,9.66
2023-02-14T08:27:52.465Z,8.92
2023-02-14T08:30:19.389Z,8.14
2023-02-14T08:32:46.580Z,8.30
2023-02-14T08:35:13.610Z,9.17
2023-02-14T08:37:40.528Z,10.17
2023-02-14T08:40:08.014Z,10.75
2023-02-14T08:42:37.822Z,10.40
2023-02-14T08:45:05.182Z,9.92
2023-02-14T08:47:35.997Z,9.58
2023-02-14T08:50:04.027Z,9.55
2023-02-14T08:52:31.145Z,10.36
2023-02-14T08:54:58.130Z,10.65
2023-02-14T08:57:25.127Z,10.17
2023-02-14T08:59:51.980Z,9.78
2023-02-14T09:02:19.102Z,9.91
2023-02-14T09:04:46.650Z,10.99
2023-02-14T09:07:13.915Z,11.44
2023-02-14T09:09:41.002Z,11.02
2023-02-14T09:12:10.081Z,10.51
2023-02-14T09:14:44.147Z,10.15
2023-02-14T09:17:12.772Z,10.33
2023-02-14T09:19:39.837Z,11.28
2023-02-14T09:22:08.553Z,11.43
2023-02-14T09:24:37.773Z,11.21
2023-02-14T09:27:05.245Z,10.88
2023-02-14T09:29:32.625Z,10.68
2023-02-14T09:32:01.440Z,10.67
2023-02-14T09:34:48.807Z,10.71
2023-02-14T09:37:15.808Z,10.70
2023-02-14T09:39:42.856Z,10.66
2023-02-14T09:42:48.026Z,10.49
2023-02-14T09:45:22.660Z,10.77
2023-02-14T09:47:56.264Z,11.81
2023-02-14T09:50:31.862Z,12.22
2023-02-14T09:53:06.608Z,12.31
2023-02-14T09:55:45.112Z,12.28
2023-02-14T09:58:34.887Z,12.16
2023-02-14T10:01:10.938Z,12.03
2023-02-14T10:04:04.968Z,11.89
2023-02-14T10:06:40.945Z,11.95
2023-02-14T10:09:26.753Z,11.94
2023-02-14T10:11:55.086Z,12.02
2023-02-14T10:14:26.529Z,12.07
2023-02-14T10:17:07.357Z,12.07
2023-02-14T10:19:42.979Z,12.11
2023-02-14T10:22:15.343Z,12.20
2023-02-14T10:25:08.700Z,12.17
2023-02-14T10:27:44.154Z,12.20
2023-02-14T10:30:18.931Z,12.43
2023-02-14T10:33:19.723Z,12.48
2023-02-14T10:35:52.814Z,12.31
2023-02-14T10:38:41.239Z,12.21
2023-02-14T10:41:36.473Z,12.09
2023-02-14T10:44:31.200Z,12.00
2023-02-14T10:47:07.396Z,11.89
2023-02-14T10:49:40.216Z,11.84
2023-02-14T10:52:13.241Z,11.84
2023-02-14T10:54:44.442Z,11.68
2023-02-14T10:57:21.509Z,11.32
2023-02-14T11:00:07.663Z,10.84
2023-02-14T11:02:37.959Z,10.37
2023-02-14T11:05:06.377Z,10.16
2023-02-14T11:07:33.706Z,9.94
2023-02-14T11:10:01.764Z,9.69
2023-02-14T11:12:41.876Z,9.44
2023-02-14T11:15:22.717Z,9.17
2023-02-14T11:17:50.314Z,8.94
2023-02-14T11:20:32.205Z,9.31
2023-02-14T11:22:59.312Z,10.44
2023-02-14T11:25:30.092Z,11.05
2023-02-14T11:28:08.341Z,10.66
2023-02-14T11:30:47.803Z,10.15
2023-02-14T11:33:42.716Z,9.80
2023-02-14T11:36:15.142Z,9.55
2023-02-14T11:38:45.366Z,9.39
2023-02-14T11:41:15.253Z,9.24
2023-02-14T11:43:45.844Z,9.17
2023-02-14T11:46:20.743Z,9.06
2023-02-14T11:48:59.175Z,9.16
2023-02-14T11:51:33.294Z,10.16
2023-02-14T11:54:05.090Z,10.85
2023-02-14T11:56:48.009Z,10.60
2023-02-14T11:59:23.011Z,10.25
2023-02-14T12:01:50.294Z,9.99
2023-02-14T12:04:22.959Z,9.77
2023-02-14T12:06:50.497Z,9.57
2023-02-14T12:09:23.381Z,9.33
2023-02-14T12:12:03.173Z,9.30
2023-02-14T12:14:32.877Z,10.17
2023-02-14T12:17:13.282Z,10.81
2023-02-14T12:20:03.925Z,10.46
2023-02-14T12:22:39.983Z,9.98
2023-02-14T12:25:16.738Z,9.65
2023-02-14T12:27:53.722Z,9.39
2023-02-14T12:30:24.419Z,9.18
2023-02-14T12:32:54.312Z,9.06
2023-02-14T12:35:50.227Z,9.25
2023-02-14T12:38:46.318Z,10.28
2023-02-14T12:41:40.799Z,10.85
2023-02-14T12:44:18.381Z,10.29
2023-02-14T12:47:03.789Z,9.76
2023-02-14T12:50:03.278Z,9.47
2023-02-14T12:52:48.399Z,9.30
2023-02-14T12:55:34.206Z,9.15
2023-02-14T12:58:38.361Z,9.01
2023-02-14T13:01:28.945Z,8.89
2023-02-14T13:04:29.057Z,9.53
2023-02-14T13:07:14.023Z,11.01
2023-02-14T13:09:40.889Z,12.32
2023-02-14T13:12:36.303Z,12.75
2023-02-14T13:15:07.022Z,13.04
2023-02-14T13:17:36.738Z,13.19
2023-02-14T13:20:13.336Z,13.06
2023-02-14T13:22:41.332Z,12.94
2023-02-14T13:25:33.997Z,12.96
2023-02-14T13:28:05.769Z,12.89
2023-02-14T13:30:35.258Z,12.82
2023-02-14T13:33:07.471Z,12.64
2023-02-14T13:35:35.405Z,12.46
2023-02-14T13:38:06.905Z,12.32
2023-02-14T13:40:35.933Z,12.10
2023-02-14T13:43:03.230Z,11.88
2023-02-14T13:45:30.544Z,11.81
2023-02-14T13:48:22.751Z,11.90
2023-02-14T13:50:54.713Z,12.17
2023-02-14T13:53:44.937Z,12.40
2023-02-14T13:56:11.777Z,12.53
2023-02-14T13:59:00.150Z,12.13
2023-02-14T14:01:30.206Z,11.44
2023-02-14T14:04:00.953Z,10.89
2023-02-14T14:06:28.472Z,10.44
2023-02-14T14:08:57.227Z,10.10
2023-02-14T14:11:24.125Z,9.89
2023-02-14T14:13:51.128Z,9.75
2023-02-14T14:16:24.051Z,9.69
2023-02-14T14:18:58.505Z,9.52
2023-02-14T14:21:26.768Z,9.52
2023-02-14T14:24:18.242Z,10.35
2023-02-14T14:26:48.013Z,11.41
2023-02-14T14:29:32.489Z,11.47
2023-02-14T14:31:59.477Z,10.87
2023-02-14T14:34:28.659Z,10.34
2023-02-14T14:37:04.562Z,9.94
2023-02-14T14:39:34.624Z,9.54
2023-02-14T14:42:07.628Z,9.61
2023-02-14T14:44:36.314Z,10.57
2023-02-14T14:47:03.980Z,11.34
2023-02-14T14:49:32.474Z,11.25
2023-02-14T14:51:59.366Z,10.65
2023-02-14T14:54:27.779Z,10.18
2023-02-14T14:56:59.486Z,9.84
2023-02-14T14:59:35.992Z,9.68
2023-02-14T15:02:20.390Z,10.35
2023-02-14T15:04:47.330Z,11.28
2023-02-14T15:07:35.055Z,11.18
2023-02-14T15:10:02.296Z,10.67
2023-02-14T15:12:48.392Z,10.34
2023-02-14T15:15:18.145Z,9.99
2023-02-14T15:17:46.188Z,9.93
2023-02-14T15:20:20.372Z,10.58
2023-02-14T15:22:49.825Z,10.85
2023-02-14T15:25:21.510Z,10.32
2023-02-14T15:27:49.171Z,9.82
2023-02-14T15:30:19.527Z,9.64
2023-02-14T15:32:49.671Z,10.34
2023-02-14T15:35:22.068Z,10.75
2023-02-14T15:37:50.596Z,10.17
2023-02-14T15:40:23.571Z,9.41
2023-02-14T15:42:56.643Z,9.50
2023-02-14T15:45:30.998Z,10.79
2023-02-14T15:48:05.621Z,12.00
2023-02-14T15:50:35.673Z,11.79
2023-02-14T15:53:07.215Z,11.01
2023-02-14T15:55:35.898Z,10.28
2023-02-14T15:58:06.884Z,9.66
2023-02-14T16:00:35.644Z,9.19
2023-02-14T16:03:07.387Z,9.56
2023-02-14T16:05:34.910Z,10.16
2023-02-14T16:08:03.720Z,10.60
2023-02-14T16:10:30.668Z,10.73
2023-02-14T16:13:02.249Z,10.08
2023-02-14T16:15:32.393Z,9.23
2023-02-14T16:18:01.230Z,8.79
2023-02-14T16:20:43.654Z,9.33
2023-02-14T16:23:29.339Z,10.00
2023-02-14T16:25:59.117Z,10.49
2023-02-14T16:28:31.098Z,10.58
2023-02-14T16:31:01.075Z,9.81
2023-02-14T16:33:32.076Z,9.00
2023-02-14T16:36:29.929Z,9.12
2023-02-14T16:38:57.595Z,9.71
2023-02-14T16:41:27.702Z,10.13
2023-02-14T16:43:55.836Z,10.33
2023-02-14T16:46:27.679Z,10.45
2023-02-14T16:48:54.814Z,9.74
2023-02-14T16:51:23.956Z,8.74
2023-02-14T16:53:51.470Z,8.26
2023-02-14T16:56:18.322Z,8.60
2023-02-14T16:58:46.027Z,9.07
2023-02-14T17:01:13.185Z,9.41
2023-02-14T17:03:42.685Z,9.63
2023-02-14T17:06:17.117Z,9.81
2023-02-14T17:08:45.301Z,9.98
2023-02-14T17:11:12.182Z,10.10
2023-02-14T17:13:42.334Z,10.21
2023-02-14T17:16:11.968Z,10.30
2023-02-14T17:18:42.298Z,9.65
2023-02-14T17:21:09.878Z,8.67
2023-02-14T17:23:36.871Z,8.02
2023-02-14T17:26:04.090Z,8.22
2023-02-14T17:28:30.923Z,8.64
2023-02-14T17:31:00.605Z,8.84
2023-02-14T17:33:27.721Z,9.03
2023-02-14T17:35:54.721Z,8.96
2023-02-14T17:38:22.433Z,9.02
2023-02-14T17:40:49.413Z,9.14
2023-02-14T17:43:16.359Z,9.07
2023-02-14T17:45:43.367Z,9.08
2023-02-14T17:48:11.820Z,9.05
2023-02-14T17:50:38.904Z,9.01
2023-02-14T17:53:05.835Z,9.04
2023-02-14T17:55:32.864Z,9.03
2023-02-14T17:57:59.936Z,9.06
2023-02-14T18:00:26.845Z,9.06
2023-02-14T18:02:53.729Z,9.04
2023-02-14T18:05:20.739Z,9.07
2023-02-14T18:07:47.905Z,9.08
2023-02-14T18:10:15.299Z,9.12
2023-02-14T18:12:42.454Z,9.16
2023-02-14T18:15:10.191Z,9.23
2023-02-14T18:17:37.200Z,9.48
2023-02-14T18:20:05.530Z,10.10
2023-02-14T18:22:32.672Z,10.85
2023-02-14T18:24:59.618Z,11.03
2023-02-14T18:27:26.664Z,10.15
2023-02-14T18:29:53.899Z,9.03
2023-02-14T18:32:20.968Z,8.07
2023-02-14T18:34:47.831Z,7.51
2023-02-14T18:37:14.879Z,7.84
2023-02-14T18:39:41.879Z,8.31
2023-02-14T18:42:09.230Z,8.67
2023-02-14T18:44:36.585Z,8.99
2023-02-14T18:47:03.683Z,9.19
2023-02-14T18:49:31.496Z,9.50
2023-02-14T18:51:59.050Z,9.90
2023-02-14T18:54:26.258Z,10.16
2023-02-14T18:56:53.490Z,10.07
2023-02-14T18:59:20.498Z,9.14
2023-02-14T19:01:47.600Z,8.13
2023-02-14T19:04:14.782Z,7.52
2023-02-14T19:06:42.533Z,7.83
2023-02-14T19:09:12.239Z,8.24
2023-02-14T19:11:39.710Z,8.56
2023-02-14T19:14:10.503Z,8.80
2023-02-14T19:16:51.261Z,9.04
2023-02-14T19:19:18.838Z,9.17
2023-02-14T19:21:46.364Z,9.22
2023-02-14T19:24:16.813Z,9.29
2023-02-14T19:26:45.110Z,9.30
2023-02-14T19:29:15.570Z,9.29
2023-02-14T19:31:51.357Z,9.25
2023-02-14T19:34:24.327Z,9.22
2023-02-14T19:36:52.761Z,9.18
2023-02-14T19:39:21.596Z,9.14
2023-02-14T19:41:49.384Z,9.10
2023-02-14T19:44:17.951Z,9.07
2023-02-14T19:46:47.598Z,9.03
2023-02-14T19:49:16.690Z,8.98
2023-02-14T19:51:44.880Z,8.92
2023-02-14T19:54:13.083Z,9.11
2023-02-14T19:56:45.112Z,9.32
2023-02-14T19:59:20.105Z,9.50
2023-02-14T20:01:52.975Z,9.54
2023-02-14T20:04:22.888Z,9.57
2023-02-14T20:06:50.783Z,9.63
2023-02-14T20:09:19.339Z,9.54
2023-02-14T20:11:51.897Z,8.80
2023-02-14T20:14:21.882Z,7.94
2023-02-14T20:16:49.200Z,7.39
2023-02-14T20:19:21.408Z,7.68
2023-02-14T20:21:50.159Z,8.28
2023-02-14T20:24:20.804Z,8.64
2023-02-14T20:26:49.018Z,8.86
2023-02-14T20:29:16.929Z,8.92
2023-02-14T20:31:49.649Z,8.89
2023-02-14T20:34:17.868Z,8.91
2023-02-14T20:36:49.716Z,8.98
2023-02-14T20:39:16.646Z,9.02
2023-02-14T20:41:46.438Z,9.07
2023-02-14T20:44:15.897Z,8.98
2023-02-14T20:46:43.044Z,8.25
2023-02-14T20:49:12.177Z,7.36
2023-02-14T20:51:39.510Z,6.78
2023-02-14T20:54:06.724Z,7.08
2023-02-14T20:56:34.378Z,7.53
2023-02-14T20:59:04.586Z,7.83
2023-02-14T21:01:31.596Z,8.00
2023-02-14T21:03:58.652Z,8.11
2023-02-14T21:06:28.555Z,8.19
2023-02-14T21:08:55.660Z,8.18
2023-02-14T21:11:24.327Z,8.10
2023-02-14T21:13:55.208Z,8.19
2023-02-14T21:16:23.077Z,8.30
2023-02-14T21:19:01.462Z,8.35
2023-02-14T21:21:36.813Z,8.43
2023-02-14T21:24:12.283Z,8.35
2023-02-14T21:26:39.902Z,8.30
2023-02-14T21:29:07.422Z,8.34
2023-02-14T21:31:34.474Z,8.31
2023-02-14T21:34:03.270Z,8.30
2023-02-14T21:36:33.020Z,8.36
2023-02-14T21:39:00.336Z,8.43
2023-02-14T21:41:30.379Z,8.57
2023-02-14T21:43:59.675Z,8.63
2023-02-14T21:46:31.065Z,8.69
2023-02-14T21:49:21.569Z,8.80
2023-02-14T21:51:48.717Z,8.94
2023-02-14T21:54:16.912Z,9.00
2023-02-14T21:56:44.109Z,8.38
2023-02-14T21:59:11.804Z,7.49
2023-02-14T22:01:41.293Z,6.97
2023-02-14T22:04:11.079Z,7.45
2023-02-14T22:06:40.714Z,7.84
2023-02-14T22:09:07.835Z,8.13
2023-02-14T22:11:35.244Z,8.34
2023-02-14T22:14:02.477Z,8.47
2023-02-14T22:16:29.525Z,8.78
2023-02-14T22:18:56.645Z,9.34
2023-02-14T22:21:25.639Z,9.92
2023-02-14T22:23:54.112Z,9.97
2023-02-14T22:26:29.384Z,9.19
2023-02-14T22:28:59.348Z,8.33
2023-02-14T22:31:28.713Z,7.78
2023-02-14T22:33:55.636Z,8.11
2023-02-14T22:36:22.570Z,8.61
2023-02-14T22:38:49.544Z,8.95
2023-02-14T22:41:19.246Z,9.18
2023-02-14T22:43:46.399Z,9.27
2023-02-14T22:46:20.188Z,9.36
2023-02-14T22:48:48.798Z,9.38
2023-02-14T22:51:30.963Z,9.49
2023-02-14T22:54:10.205Z,9.56
2023-02-14T22:56:41.313Z,9.68
2023-02-14T22:59:31.352Z,9.63
2023-02-14T23:01:58.553Z,8.65
2023-02-14T23:04:26.764Z,7.94
2023-02-14T23:06:54.127Z,8.15
2023-02-14T23:09:22.457Z,8.58
2023-02-14T23:11:49.471Z,8.88
2023-02-14T23:14:37.136Z,9.11
2023-02-14T23:17:23.775Z,9.26
2023-02-14T23:20:09.973Z,9.38
2023-02-14T23:22:39.423Z,9.54
2023-02-14T23:25:09.804Z,9.65
2023-02-14T23:27:43.312Z,9.69
2023-02-14T23:30:16.204Z,9.72
2023-02-14T23:32:43.470Z,9.75
2023-02-14T23:35:10.898Z,9.79
2023-02-14T23:37:38.599Z,9.83
2023-02-14T23:40:07.002Z,9.87
2023-02-14T23:42:34.002Z,9.90
2023-02-14T23:45:21.082Z,9.81
2023-02-14T23:47:48.074Z,8.91
2023-02-14T23:50:15.699Z,8.17
2023-02-14T23:52:44.734Z,8.34
2023-02-14T23:55:12.714Z,8.75
2023-02-14T23:57:39.774Z,9.00
